Greenfield, Oklahoma
Current Conditions -  °F | °C
As of 11:15 AM on Thursday 27 Nov 2014 (Local Time) from KJWG Reporting Station
Clear Clear  
Wind Chill: 36°   Ceiling: Unl
Heat Index: 42°   Visibility: 10mi
Dew Point: 23°   Wind: 9mph
Humidity: 49%   Direction: 160°SSE
Pressure: 30.51"   Gusts: NA
Location:  35.73°N, 98.38°W
Report Text: KJWG 271715Z AUTO 16008KT 10SM CLR 05/M05 A3051 RMK AO2 T00531048
Loading
Personal Weather Stations






























Interactive Weather Map New forecast layout! Learn more

10-Day Weather Forecast

Advertisements
Track Severe Weather on mobile